sensor_id;sensor_type;location;lat;lon;timestamp;P1;durP1;ratioP1;P2;durP2;ratioP2
7076;SDS011;3579;48.956;9.154;2023-01-10T00:01:10;0.50;;;0.50;;
7076;SDS011;3579;48.956;9.154;2023-01-10T00:03:36;0.70;;;0.70;;
7076;SDS011;3579;48.956;9.154;2023-01-10T00:06:02;0.80;;;0.80;;
7076;SDS011;3579;48.956;9.154;2023-01-10T00:08:28;0.70;;;0.70;;
7076;SDS011;3579;48.956;9.154;2023-01-10T00:10:54;0.60;;;0.60;;
7076;SDS011;3579;48.956;9.154;2023-01-10T00:13:20;1.33;;;0.90;;
7076;SDS011;3579;48.956;9.154;2023-01-10T00:15:50;0.60;;;0.60;;
7076;SDS011;3579;48.956;9.154;2023-01-10T00:18:17;0.87;;;0.70;;
7076;SDS011;3579;48.956;9.154;2023-01-10T00:20:43;0.73;;;0.70;;
7076;SDS011;3579;48.956;9.154;2023-01-10T00:23:10;0.70;;;0.70;;
7076;SDS011;3579;48.956;9.154;2023-01-10T00:25:37;0.87;;;0.70;;
7076;SDS011;3579;48.956;9.154;2023-01-10T00:28:03;0.70;;;0.70;;
7076;SDS011;3579;48.956;9.154;2023-01-10T00:30:51;1.03;;;0.70;;
7076;SDS011;3579;48.956;9.154;2023-01-10T00:33:26;0.60;;;0.60;;
7076;SDS011;3579;48.956;9.154;2023-01-10T00:35:53;0.70;;;0.70;;
7076;SDS011;3579;48.956;9.154;2023-01-10T00:38:19;0.77;;;0.70;;
7076;SDS011;3579;48.956;9.154;2023-01-10T00:40:45;0.93;;;0.90;;
7076;SDS011;3579;48.956;9.154;2023-01-10T00:43:11;0.83;;;0.80;;
7076;SDS011;3579;48.956;9.154;2023-01-10T00:45:56;0.87;;;0.80;;
7076;SDS011;3579;48.956;9.154;2023-01-10T00:48:22;0.67;;;0.67;;
7076;SDS011;3579;48.956;9.154;2023-01-10T00:50:48;0.70;;;0.70;;
7076;SDS011;3579;48.956;9.154;2023-01-10T00:53:14;0.73;;;0.73;;
7076;SDS011;3579;48.956;9.154;2023-01-10T00:55:40;0.80;;;0.80;;
7076;SDS011;3579;48.956;9.154;2023-01-10T00:58:07;0.70;;;0.63;;
7076;SDS011;3579;48.956;9.154;2023-01-10T01:00:36;0.80;;;0.80;;
7076;SDS011;3579;48.956;9.154;2023-01-10T01:03:03;0.80;;;0.80;;
7076;SDS011;3579;48.956;9.154;2023-01-10T01:05:31;0.60;;;0.60;;
7076;SDS011;3579;48.956;9.154;2023-01-10T01:07:57;0.70;;;0.70;;
7076;SDS011;3579;48.956;9.154;2023-01-10T01:10:23;0.60;;;0.60;;
7076;SDS011;3579;48.956;9.154;2023-01-10T01:12:56;0.60;;;0.60;;
7076;SDS011;3579;48.956;9.154;2023-01-10T01:15:23;0.70;;;0.70;;
7076;SDS011;3579;48.956;9.154;2023-01-10T01:17:51;0.73;;;0.73;;
7076;SDS011;3579;48.956;9.154;2023-01-10T01:20:17;0.70;;;0.70;;
7076;SDS011;3579;48.956;9.154;2023-01-10T01:22:45;0.67;;;0.60;;
7076;SDS011;3579;48.956;9.154;2023-01-10T01:25:11;0.70;;;0.70;;
7076;SDS011;3579;48.956;9.154;2023-01-10T01:27:38;0.77;;;0.70;;
7076;SDS011;3579;48.956;9.154;2023-01-10T01:30:04;0.70;;;0.70;;
7076;SDS011;3579;48.956;9.154;2023-01-10T01:32:32;0.67;;;0.67;;
7076;SDS011;3579;48.956;9.154;2023-01-10T01:34:58;0.70;;;0.70;;
7076;SDS011;3579;48.956;9.154;2023-01-10T01:37:25;0.87;;;0.83;;
7076;SDS011;3579;48.956;9.154;2023-01-10T01:39:51;0.77;;;0.77;;
7076;SDS011;3579;48.956;9.154;2023-01-10T01:42:22;0.70;;;0.70;;
7076;SDS011;3579;48.956;9.154;2023-01-10T01:47:46;0.70;;;0.70;;
7076;SDS011;3579;48.956;9.154;2023-01-10T01:50:21;0.80;;;0.70;;
7076;SDS011;3579;48.956;9.154;2023-01-10T01:53:08;0.70;;;0.70;;
7076;SDS011;3579;48.956;9.154;2023-01-10T01:55:37;0.70;;;0.70;;
7076;SDS011;3579;48.956;9.154;2023-01-10T01:58:07;0.83;;;0.70;;
7076;SDS011;3579;48.956;9.154;2023-01-10T02:00:39;0.77;;;0.77;;
7076;SDS011;3579;48.956;9.154;2023-01-10T02:03:06;0.73;;;0.73;;
7076;SDS011;3579;48.956;9.154;2023-01-10T02:05:32;0.70;;;0.70;;
7076;SDS011;3579;48.956;9.154;2023-01-10T02:08:01;0.70;;;0.70;;
7076;SDS011;3579;48.956;9.154;2023-01-10T02:10:48;0.70;;;0.70;;
7076;SDS011;3579;48.956;9.154;2023-01-10T02:13:36;0.70;;;0.70;;
7076;SDS011;3579;48.956;9.154;2023-01-10T02:16:06;0.70;;;0.70;;
7076;SDS011;3579;48.956;9.154;2023-01-10T02:18:32;0.90;;;0.80;;
7076;SDS011;3579;48.956;9.154;2023-01-10T02:34:52;0.80;;;0.70;;
7076;SDS011;3579;48.956;9.154;2023-01-10T02:43:00;0.60;;;0.60;;
7076;SDS011;3579;48.956;9.154;2023-01-10T02:45:41;0.70;;;0.70;;
7076;SDS011;3579;48.956;9.154;2023-01-10T02:48:27;0.97;;;0.80;;
7076;SDS011;3579;48.956;9.154;2023-01-10T02:51:03;0.70;;;0.70;;
7076;SDS011;3579;48.956;9.154;2023-01-10T02:53:35;0.80;;;0.80;;
7076;SDS011;3579;48.956;9.154;2023-01-10T03:03:49;0.70;;;0.70;;
7076;SDS011;3579;48.956;9.154;2023-01-10T03:09:05;0.80;;;0.80;;
7076;SDS011;3579;48.956;9.154;2023-01-10T03:11:53;0.80;;;0.80;;
7076;SDS011;3579;48.956;9.154;2023-01-10T03:14:26;0.77;;;0.77;;
7076;SDS011;3579;48.956;9.154;2023-01-10T03:17:01;0.80;;;0.80;;
7076;SDS011;3579;48.956;9.154;2023-01-10T03:19:32;0.60;;;0.60;;
7076;SDS011;3579;48.956;9.154;2023-01-10T03:22:02;0.63;;;0.63;;
7076;SDS011;3579;48.956;9.154;2023-01-10T03:24:32;0.70;;;0.70;;
7076;SDS011;3579;48.956;9.154;2023-01-10T03:32:16;0.70;;;0.70;;
7076;SDS011;3579;48.956;9.154;2023-01-10T03:34:47;0.77;;;0.77;;
7076;SDS011;3579;48.956;9.154;2023-01-10T03:37:35;0.80;;;0.80;;
7076;SDS011;3579;48.956;9.154;2023-01-10T03:43:14;0.83;;;0.70;;
7076;SDS011;3579;48.956;9.154;2023-01-10T03:46:03;0.67;;;0.63;;
7076;SDS011;3579;48.956;9.154;2023-01-10T03:48:36;0.70;;;0.70;;
7076;SDS011;3579;48.956;9.154;2023-01-10T03:51:06;0.90;;;0.80;;
7076;SDS011;3579;48.956;9.154;2023-01-10T03:53:35;0.70;;;0.70;;
7076;SDS011;3579;48.956;9.154;2023-01-10T03:56:03;0.80;;;0.80;;
7076;SDS011;3579;48.956;9.154;2023-01-10T03:58:30;0.73;;;0.73;;
7076;SDS011;3579;48.956;9.154;2023-01-10T04:00:56;0.70;;;0.70;;
7076;SDS011;3579;48.956;9.154;2023-01-10T04:03:22;0.70;;;0.70;;
7076;SDS011;3579;48.956;9.154;2023-01-10T04:05:48;0.70;;;0.70;;
7076;SDS011;3579;48.956;9.154;2023-01-10T04:08:14;0.70;;;0.70;;
7076;SDS011;3579;48.956;9.154;2023-01-10T04:10:40;0.60;;;0.60;;
7076;SDS011;3579;48.956;9.154;2023-01-10T04:13:06;0.60;;;0.60;;
7076;SDS011;3579;48.956;9.154;2023-01-10T04:15:32;0.60;;;0.60;;
7076;SDS011;3579;48.956;9.154;2023-01-10T04:17:58;1.37;;;0.70;;
7076;SDS011;3579;48.956;9.154;2023-01-10T04:20:24;0.83;;;0.83;;
7076;SDS011;3579;48.956;9.154;2023-01-10T04:22:53;0.67;;;0.67;;
7076;SDS011;3579;48.956;9.154;2023-01-10T04:25:20;0.70;;;0.70;;
7076;SDS011;3579;48.956;9.154;2023-01-10T04:27:48;0.60;;;0.60;;
7076;SDS011;3579;48.956;9.154;2023-01-10T04:30:15;0.70;;;0.67;;
7076;SDS011;3579;48.956;9.154;2023-01-10T04:32:41;1.10;;;0.93;;
7076;SDS011;3579;48.956;9.154;2023-01-10T04:35:08;0.80;;;0.80;;
7076;SDS011;3579;48.956;9.154;2023-01-10T04:37:34;0.70;;;0.60;;
7076;SDS011;3579;48.956;9.154;2023-01-10T04:40:00;0.70;;;0.70;;
7076;SDS011;3579;48.956;9.154;2023-01-10T04:42:26;0.70;;;0.70;;
7076;SDS011;3579;48.956;9.154;2023-01-10T04:44:52;0.60;;;0.60;;
7076;SDS011;3579;48.956;9.154;2023-01-10T04:47:18;0.70;;;0.70;;
7076;SDS011;3579;48.956;9.154;2023-01-10T04:49:44;1.10;;;0.70;;
7076;SDS011;3579;48.956;9.154;2023-01-10T04:52:10;0.70;;;0.70;;
7076;SDS011;3579;48.956;9.154;2023-01-10T04:54:36;0.87;;;0.87;;
7076;SDS011;3579;48.956;9.154;2023-01-10T04:57:02;1.00;;;0.90;;
7076;SDS011;3579;48.956;9.154;2023-01-10T04:59:31;0.70;;;0.70;;
7076;SDS011;3579;48.956;9.154;2023-01-10T05:01:57;0.73;;;0.70;;
7076;SDS011;3579;48.956;9.154;2023-01-10T05:04:23;0.80;;;0.80;;
7076;SDS011;3579;48.956;9.154;2023-01-10T05:06:49;1.07;;;0.90;;
7076;SDS011;3579;48.956;9.154;2023-01-10T05:09:15;0.60;;;0.60;;
7076;SDS011;3579;48.956;9.154;2023-01-10T05:11:42;0.70;;;0.70;;
7076;SDS011;3579;48.956;9.154;2023-01-10T05:14:07;0.80;;;0.80;;
7076;SDS011;3579;48.956;9.154;2023-01-10T05:16:33;0.70;;;0.53;;
7076;SDS011;3579;48.956;9.154;2023-01-10T05:19:00;0.70;;;0.70;;
7076;SDS011;3579;48.956;9.154;2023-01-10T05:21:27;0.80;;;0.80;;
7076;SDS011;3579;48.956;9.154;2023-01-10T05:23:53;0.70;;;0.70;;
7076;SDS011;3579;48.956;9.154;2023-01-10T05:26:20;0.70;;;0.70;;
7076;SDS011;3579;48.956;9.154;2023-01-10T05:28:47;0.60;;;0.60;;
7076;SDS011;3579;48.956;9.154;2023-01-10T05:31:14;0.73;;;0.73;;
7076;SDS011;3579;48.956;9.154;2023-01-10T05:33:42;0.70;;;0.70;;
7076;SDS011;3579;48.956;9.154;2023-01-10T05:36:12;0.80;;;0.70;;
7076;SDS011;3579;48.956;9.154;2023-01-10T05:38:39;0.70;;;0.70;;
7076;SDS011;3579;48.956;9.154;2023-01-10T05:41:05;1.10;;;0.90;;
7076;SDS011;3579;48.956;9.154;2023-01-10T05:43:31;0.87;;;0.80;;
7076;SDS011;3579;48.956;9.154;2023-01-10T05:45:58;0.70;;;0.70;;
7076;SDS011;3579;48.956;9.154;2023-01-10T05:48:30;0.80;;;0.80;;
7076;SDS011;3579;48.956;9.154;2023-01-10T05:50:59;0.60;;;0.60;;
7076;SDS011;3579;48.956;9.154;2023-01-10T05:53:28;0.70;;;0.70;;
7076;SDS011;3579;48.956;9.154;2023-01-10T05:55:55;0.80;;;0.80;;
7076;SDS011;3579;48.956;9.154;2023-01-10T05:58:23;1.23;;;0.80;;
7076;SDS011;3579;48.956;9.154;2023-01-10T06:00:50;0.77;;;0.77;;
7076;SDS011;3579;48.956;9.154;2023-01-10T06:03:16;0.70;;;0.70;;
7076;SDS011;3579;48.956;9.154;2023-01-10T06:05:43;1.23;;;0.70;;
7076;SDS011;3579;48.956;9.154;2023-01-10T06:08:09;0.60;;;0.60;;
7076;SDS011;3579;48.956;9.154;2023-01-10T06:10:35;0.93;;;0.90;;
7076;SDS011;3579;48.956;9.154;2023-01-10T06:13:01;0.60;;;0.60;;
7076;SDS011;3579;48.956;9.154;2023-01-10T06:15:29;0.80;;;0.80;;
7076;SDS011;3579;48.956;9.154;2023-01-10T06:17:56;1.33;;;0.80;;
7076;SDS011;3579;48.956;9.154;2023-01-10T06:20:22;1.77;;;0.70;;
7076;SDS011;3579;48.956;9.154;2023-01-10T06:22:48;0.80;;;0.80;;
7076;SDS011;3579;48.956;9.154;2023-01-10T06:25:14;0.80;;;0.80;;
7076;SDS011;3579;48.956;9.154;2023-01-10T06:27:41;0.97;;;0.80;;
7076;SDS011;3579;48.956;9.154;2023-01-10T06:30:08;0.70;;;0.70;;
7076;SDS011;3579;48.956;9.154;2023-01-10T06:32:36;1.03;;;0.80;;
7076;SDS011;3579;48.956;9.154;2023-01-10T06:35:03;0.97;;;0.70;;
7076;SDS011;3579;48.956;9.154;2023-01-10T06:37:30;0.90;;;0.80;;
7076;SDS011;3579;48.956;9.154;2023-01-10T06:39:56;0.70;;;0.70;;
7076;SDS011;3579;48.956;9.154;2023-01-10T06:42:21;0.93;;;0.90;;
7076;SDS011;3579;48.956;9.154;2023-01-10T06:44:48;1.20;;;0.90;;
7076;SDS011;3579;48.956;9.154;2023-01-10T06:47:14;1.07;;;0.90;;
7076;SDS011;3579;48.956;9.154;2023-01-10T06:49:39;0.80;;;0.80;;
7076;SDS011;3579;48.956;9.154;2023-01-10T06:52:06;1.00;;;0.90;;
7076;SDS011;3579;48.956;9.154;2023-01-10T06:54:35;0.80;;;0.80;;
7076;SDS011;3579;48.956;9.154;2023-01-10T06:57:01;0.60;;;0.60;;
7076;SDS011;3579;48.956;9.154;2023-01-10T06:59:27;1.03;;;0.90;;
7076;SDS011;3579;48.956;9.154;2023-01-10T07:01:53;0.80;;;0.80;;
7076;SDS011;3579;48.956;9.154;2023-01-10T07:04:19;0.70;;;0.70;;
7076;SDS011;3579;48.956;9.154;2023-01-10T07:06:45;0.77;;;0.70;;
7076;SDS011;3579;48.956;9.154;2023-01-10T07:09:11;1.03;;;0.80;;
7076;SDS011;3579;48.956;9.154;2023-01-10T07:11:37;1.07;;;0.80;;
7076;SDS011;3579;48.956;9.154;2023-01-10T07:14:03;1.00;;;0.87;;
7076;SDS011;3579;48.956;9.154;2023-01-10T07:16:29;0.73;;;0.67;;
7076;SDS011;3579;48.956;9.154;2023-01-10T07:18:55;0.80;;;0.80;;
7076;SDS011;3579;48.956;9.154;2023-01-10T07:21:22;0.80;;;0.70;;
7076;SDS011;3579;48.956;9.154;2023-01-10T07:23:48;0.83;;;0.83;;
7076;SDS011;3579;48.956;9.154;2023-01-10T07:26:15;0.77;;;0.70;;
7076;SDS011;3579;48.956;9.154;2023-01-10T07:28:52;1.07;;;0.80;;
7076;SDS011;3579;48.956;9.154;2023-01-10T07:31:18;1.03;;;0.80;;
7076;SDS011;3579;48.956;9.154;2023-01-10T07:33:47;0.60;;;0.60;;
7076;SDS011;3579;48.956;9.154;2023-01-10T07:36:13;1.03;;;0.83;;
7076;SDS011;3579;48.956;9.154;2023-01-10T07:38:39;0.60;;;0.60;;
7076;SDS011;3579;48.956;9.154;2023-01-10T07:41:05;0.97;;;0.80;;
7076;SDS011;3579;48.956;9.154;2023-01-10T07:43:31;1.30;;;0.87;;
7076;SDS011;3579;48.956;9.154;2023-01-10T07:45:58;0.67;;;0.67;;
7076;SDS011;3579;48.956;9.154;2023-01-10T07:48:26;0.80;;;0.80;;
7076;SDS011;3579;48.956;9.154;2023-01-10T07:50:56;1.13;;;0.80;;
7076;SDS011;3579;48.956;9.154;2023-01-10T07:53:23;4.57;;;0.90;;
7076;SDS011;3579;48.956;9.154;2023-01-10T07:55:50;1.40;;;0.83;;
7076;SDS011;3579;48.956;9.154;2023-01-10T07:58:16;1.07;;;0.90;;
7076;SDS011;3579;48.956;9.154;2023-01-10T08:00:42;1.93;;;0.87;;
7076;SDS011;3579;48.956;9.154;2023-01-10T08:03:10;1.93;;;0.80;;
7076;SDS011;3579;48.956;9.154;2023-01-10T08:05:37;4.20;;;1.20;;
7076;SDS011;3579;48.956;9.154;2023-01-10T08:08:04;3.30;;;0.80;;
7076;SDS011;3579;48.956;9.154;2023-01-10T08:10:31;1.13;;;0.80;;
7076;SDS011;3579;48.956;9.154;2023-01-10T08:12:58;0.93;;;0.80;;
7076;SDS011;3579;48.956;9.154;2023-01-10T08:15:25;3.40;;;0.93;;
7076;SDS011;3579;48.956;9.154;2023-01-10T08:17:51;2.63;;;0.87;;
7076;SDS011;3579;48.956;9.154;2023-01-10T08:20:17;2.50;;;0.80;;
7076;SDS011;3579;48.956;9.154;2023-01-10T08:22:43;4.57;;;1.03;;
7076;SDS011;3579;48.956;9.154;2023-01-10T08:25:09;2.13;;;0.90;;
7076;SDS011;3579;48.956;9.154;2023-01-10T08:27:36;1.97;;;0.97;;
7076;SDS011;3579;48.956;9.154;2023-01-10T08:30:03;4.83;;;1.20;;
7076;SDS011;3579;48.956;9.154;2023-01-10T08:32:30;2.87;;;1.30;;
7076;SDS011;3579;48.956;9.154;2023-01-10T08:34:56;3.73;;;1.10;;
7076;SDS011;3579;48.956;9.154;2023-01-10T08:37:22;1.43;;;0.83;;
7076;SDS011;3579;48.956;9.154;2023-01-10T08:39:49;1.80;;;0.80;;
7076;SDS011;3579;48.956;9.154;2023-01-10T08:42:16;1.90;;;0.90;;
7076;SDS011;3579;48.956;9.154;2023-01-10T08:44:43;3.43;;;0.87;;
7076;SDS011;3579;48.956;9.154;2023-01-10T08:47:09;3.03;;;0.80;;
7076;SDS011;3579;48.956;9.154;2023-01-10T08:49:37;1.93;;;0.80;;
7076;SDS011;3579;48.956;9.154;2023-01-10T08:52:03;4.30;;;0.90;;
7076;SDS011;3579;48.956;9.154;2023-01-10T08:54:31;2.00;;;1.10;;
7076;SDS011;3579;48.956;9.154;2023-01-10T08:56:58;3.90;;;1.00;;
7076;SDS011;3579;48.956;9.154;2023-01-10T08:59:24;1.77;;;0.90;;
7076;SDS011;3579;48.956;9.154;2023-01-10T09:01:50;2.70;;;0.90;;
7076;SDS011;3579;48.956;9.154;2023-01-10T09:04:18;1.90;;;1.00;;
7076;SDS011;3579;48.956;9.154;2023-01-10T09:06:46;1.90;;;0.80;;
7076;SDS011;3579;48.956;9.154;2023-01-10T09:09:12;3.07;;;1.10;;
7076;SDS011;3579;48.956;9.154;2023-01-10T09:11:39;2.20;;;0.90;;
7076;SDS011;3579;48.956;9.154;2023-01-10T09:14:05;2.35;;;1.00;;
7076;SDS011;3579;48.956;9.154;2023-01-10T09:16:32;1.70;;;0.90;;
7076;SDS011;3579;48.956;9.154;2023-01-10T09:18:58;2.00;;;0.97;;
7076;SDS011;3579;48.956;9.154;2023-01-10T09:21:26;4.07;;;1.00;;
7076;SDS011;3579;48.956;9.154;2023-01-10T09:23:53;4.90;;;1.27;;
7076;SDS011;3579;48.956;9.154;2023-01-10T09:26:24;1.80;;;1.03;;
7076;SDS011;3579;48.956;9.154;2023-01-10T09:28:54;2.37;;;1.10;;
7076;SDS011;3579;48.956;9.154;2023-01-10T09:31:23;1.00;;;0.90;;
7076;SDS011;3579;48.956;9.154;2023-01-10T09:33:50;3.10;;;0.83;;
7076;SDS011;3579;48.956;9.154;2023-01-10T09:36:16;0.87;;;0.80;;
7076;SDS011;3579;48.956;9.154;2023-01-10T09:38:42;1.87;;;0.87;;
7076;SDS011;3579;48.956;9.154;2023-01-10T09:51:52;2.07;;;0.97;;
7076;SDS011;3579;48.956;9.154;2023-01-10T09:54:23;1.30;;;0.90;;
7076;SDS011;3579;48.956;9.154;2023-01-10T09:56:52;2.43;;;1.00;;
7076;SDS011;3579;48.956;9.154;2023-01-10T09:59:25;2.63;;;1.10;;
7076;SDS011;3579;48.956;9.154;2023-01-10T10:02:44;1.40;;;1.00;;
7076;SDS011;3579;48.956;9.154;2023-01-10T10:05:05;2.63;;;1.10;;
7076;SDS011;3579;48.956;9.154;2023-01-10T10:07:38;1.87;;;0.90;;
7076;SDS011;3579;48.956;9.154;2023-01-10T10:10:17;1.40;;;1.00;;
7076;SDS011;3579;48.956;9.154;2023-01-10T10:15:42;1.43;;;1.00;;
7076;SDS011;3579;48.956;9.154;2023-01-10T10:23:58;1.90;;;1.00;;
7076;SDS011;3579;48.956;9.154;2023-01-10T10:26:58;1.60;;;1.10;;
7076;SDS011;3579;48.956;9.154;2023-01-10T10:29:38;2.10;;;0.77;;
7076;SDS011;3579;48.956;9.154;2023-01-10T10:32:24;2.50;;;0.90;;
7076;SDS011;3579;48.956;9.154;2023-01-10T10:35:12;1.63;;;1.00;;
7076;SDS011;3579;48.956;9.154;2023-01-10T10:37:47;3.10;;;0.98;;
7076;SDS011;3579;48.956;9.154;2023-01-10T10:42:47;1.33;;;1.00;;
7076;SDS011;3579;48.956;9.154;2023-01-10T10:45:40;1.63;;;1.10;;
7076;SDS011;3579;48.956;9.154;2023-01-10T10:50:57;1.33;;;0.80;;
7076;SDS011;3579;48.956;9.154;2023-01-10T10:53:25;2.23;;;1.17;;
7076;SDS011;3579;48.956;9.154;2023-01-10T10:55:52;1.90;;;1.10;;
7076;SDS011;3579;48.956;9.154;2023-01-10T10:58:19;1.47;;;0.90;;
7076;SDS011;3579;48.956;9.154;2023-01-10T11:00:45;2.20;;;1.00;;
7076;SDS011;3579;48.956;9.154;2023-01-10T11:05:54;1.00;;;0.87;;
7076;SDS011;3579;48.956;9.154;2023-01-10T11:08:22;1.27;;;0.90;;
7076;SDS011;3579;48.956;9.154;2023-01-10T11:10:54;1.50;;;0.90;;
7076;SDS011;3579;48.956;9.154;2023-01-10T11:15:58;1.37;;;0.80;;
7076;SDS011;3579;48.956;9.154;2023-01-10T11:18:30;1.33;;;0.90;;
7076;SDS011;3579;48.956;9.154;2023-01-10T11:21:04;2.43;;;1.10;;
7076;SDS011;3579;48.956;9.154;2023-01-10T11:26:06;1.50;;;0.90;;
7076;SDS011;3579;48.956;9.154;2023-01-10T11:28:50;1.23;;;0.90;;
7076;SDS011;3579;48.956;9.154;2023-01-10T11:31:28;1.73;;;0.80;;
7076;SDS011;3579;48.956;9.154;2023-01-10T11:33:55;2.10;;;0.90;;
7076;SDS011;3579;48.956;9.154;2023-01-10T11:36:22;3.23;;;1.20;;
7076;SDS011;3579;48.956;9.154;2023-01-10T11:38:59;1.93;;;0.80;;
7076;SDS011;3579;48.956;9.154;2023-01-10T11:41:28;1.50;;;1.10;;
7076;SDS011;3579;48.956;9.154;2023-01-10T11:47:01;2.10;;;1.10;;
7076;SDS011;3579;48.956;9.154;2023-01-10T11:49:31;1.17;;;0.90;;
7076;SDS011;3579;48.956;9.154;2023-01-10T11:54:42;2.30;;;1.00;;
7076;SDS011;3579;48.956;9.154;2023-01-10T11:57:16;1.40;;;1.03;;
7076;SDS011;3579;48.956;9.154;2023-01-10T11:59:56;1.77;;;1.10;;
7076;SDS011;3579;48.956;9.154;2023-01-10T12:04:58;1.80;;;0.90;;
7076;SDS011;3579;48.956;9.154;2023-01-10T12:07:26;2.03;;;0.90;;
7076;SDS011;3579;48.956;9.154;2023-01-10T12:10:00;0.97;;;0.80;;
7076;SDS011;3579;48.956;9.154;2023-01-10T12:12:32;1.90;;;0.97;;
7076;SDS011;3579;48.956;9.154;2023-01-10T12:17:57;1.23;;;0.90;;
7076;SDS011;3579;48.956;9.154;2023-01-10T12:20:30;2.17;;;1.13;;
7076;SDS011;3579;48.956;9.154;2023-01-10T12:23:05;1.83;;;1.13;;
7076;SDS011;3579;48.956;9.154;2023-01-10T12:25:35;1.57;;;0.90;;
7076;SDS011;3579;48.956;9.154;2023-01-10T12:28:11;1.20;;;1.10;;
7076;SDS011;3579;48.956;9.154;2023-01-10T12:30:54;1.33;;;1.10;;
7076;SDS011;3579;48.956;9.154;2023-01-10T12:33:25;1.37;;;1.00;;
7076;SDS011;3579;48.956;9.154;2023-01-10T12:35:57;2.03;;;1.30;;
7076;SDS011;3579;48.956;9.154;2023-01-10T12:39:04;1.53;;;0.90;;
7076;SDS011;3579;48.956;9.154;2023-01-10T12:44:44;2.17;;;0.90;;
7076;SDS011;3579;48.956;9.154;2023-01-10T12:49:49;3.07;;;1.10;;
7076;SDS011;3579;48.956;9.154;2023-01-10T12:52:33;1.07;;;0.90;;
7076;SDS011;3579;48.956;9.154;2023-01-10T12:55:16;1.30;;;0.90;;
7076;SDS011;3579;48.956;9.154;2023-01-10T12:57:45;2.60;;;1.20;;
7076;SDS011;3579;48.956;9.154;2023-01-10T13:00:18;1.97;;;1.00;;
7076;SDS011;3579;48.956;9.154;2023-01-10T13:02:54;2.30;;;1.10;;
7076;SDS011;3579;48.956;9.154;2023-01-10T13:05:23;1.80;;;1.70;;
7076;SDS011;3579;48.956;9.154;2023-01-10T13:07:52;3.13;;;1.13;;
7076;SDS011;3579;48.956;9.154;2023-01-10T13:10:24;1.87;;;0.90;;
7076;SDS011;3579;48.956;9.154;2023-01-10T13:12:53;1.23;;;0.90;;
7076;SDS011;3579;48.956;9.154;2023-01-10T13:15:29;3.37;;;1.00;;
7076;SDS011;3579;48.956;9.154;2023-01-10T13:18:04;1.20;;;0.90;;
7076;SDS011;3579;48.956;9.154;2023-01-10T13:20:47;1.30;;;1.00;;
7076;SDS011;3579;48.956;9.154;2023-01-10T13:23:19;2.13;;;1.00;;
7076;SDS011;3579;48.956;9.154;2023-01-10T13:25:55;0.93;;;0.80;;
7076;SDS011;3579;48.956;9.154;2023-01-10T13:28:26;1.50;;;1.00;;
7076;SDS011;3579;48.956;9.154;2023-01-10T13:30:55;1.80;;;1.00;;
7076;SDS011;3579;48.956;9.154;2023-01-10T13:35:57;2.80;;;1.00;;
7076;SDS011;3579;48.956;9.154;2023-01-10T13:41:14;1.83;;;1.10;;
7076;SDS011;3579;48.956;9.154;2023-01-10T13:51:25;1.27;;;1.00;;
7076;SDS011;3579;48.956;9.154;2023-01-10T13:56:29;2.07;;;1.00;;
7076;SDS011;3579;48.956;9.154;2023-01-10T13:58:58;1.53;;;1.00;;
7076;SDS011;3579;48.956;9.154;2023-01-10T14:01:53;1.93;;;1.00;;
7076;SDS011;3579;48.956;9.154;2023-01-10T14:04:48;1.00;;;0.90;;
7076;SDS011;3579;48.956;9.154;2023-01-10T14:10:00;1.47;;;1.00;;
7076;SDS011;3579;48.956;9.154;2023-01-10T14:12:32;1.67;;;1.13;;
7076;SDS011;3579;48.956;9.154;2023-01-10T14:15:22;1.67;;;0.97;;
7076;SDS011;3579;48.956;9.154;2023-01-10T14:18:02;1.97;;;1.10;;
7076;SDS011;3579;48.956;9.154;2023-01-10T14:20:31;1.77;;;1.00;;
7076;SDS011;3579;48.956;9.154;2023-01-10T14:23:18;1.77;;;1.00;;
7076;SDS011;3579;48.956;9.154;2023-01-10T14:25:54;2.30;;;1.00;;
7076;SDS011;3579;48.956;9.154;2023-01-10T14:28:23;1.27;;;0.93;;
7076;SDS011;3579;48.956;9.154;2023-01-10T14:33:20;2.90;;;1.00;;
7076;SDS011;3579;48.956;9.154;2023-01-10T14:35:53;1.13;;;0.87;;
7076;SDS011;3579;48.956;9.154;2023-01-10T14:38:24;1.00;;;0.90;;
7076;SDS011;3579;48.956;9.154;2023-01-10T14:43:42;1.33;;;0.97;;
7076;SDS011;3579;48.956;9.154;2023-01-10T14:46:14;2.97;;;1.10;;
7076;SDS011;3579;48.956;9.154;2023-01-10T14:48:46;2.27;;;1.00;;
7076;SDS011;3579;48.956;9.154;2023-01-10T14:51:24;2.80;;;1.07;;
7076;SDS011;3579;48.956;9.154;2023-01-10T14:56:29;1.37;;;1.00;;
7076;SDS011;3579;48.956;9.154;2023-01-10T14:59:15;1.40;;;1.10;;
7076;SDS011;3579;48.956;9.154;2023-01-10T15:01:52;1.63;;;1.00;;
7076;SDS011;3579;48.956;9.154;2023-01-10T15:04:21;1.57;;;1.00;;
7076;SDS011;3579;48.956;9.154;2023-01-10T15:07:13;1.93;;;0.97;;
7076;SDS011;3579;48.956;9.154;2023-01-10T15:09:37;1.40;;;0.90;;
7076;SDS011;3579;48.956;9.154;2023-01-10T15:12:04;1.40;;;0.90;;
7076;SDS011;3579;48.956;9.154;2023-01-10T15:14:32;1.50;;;1.10;;
7076;SDS011;3579;48.956;9.154;2023-01-10T15:17:00;1.60;;;1.00;;
7076;SDS011;3579;48.956;9.154;2023-01-10T15:19:31;1.23;;;0.97;;
7076;SDS011;3579;48.956;9.154;2023-01-10T15:21:59;1.40;;;0.90;;
7076;SDS011;3579;48.956;9.154;2023-01-10T15:24:35;2.23;;;1.10;;
7076;SDS011;3579;48.956;9.154;2023-01-10T15:27:03;1.77;;;1.10;;
7076;SDS011;3579;48.956;9.154;2023-01-10T15:29:35;2.33;;;1.30;;
7076;SDS011;3579;48.956;9.154;2023-01-10T15:32:10;2.70;;;1.20;;
7076;SDS011;3579;48.956;9.154;2023-01-10T15:34:50;1.95;;;1.60;;
7076;SDS011;3579;48.956;9.154;2023-01-10T15:37:21;1.70;;;1.00;;
7076;SDS011;3579;48.956;9.154;2023-01-10T15:39:53;1.67;;;0.97;;
7076;SDS011;3579;48.956;9.154;2023-01-10T15:42:20;3.90;;;1.30;;
7076;SDS011;3579;48.956;9.154;2023-01-10T15:44:47;3.37;;;1.30;;
7076;SDS011;3579;48.956;9.154;2023-01-10T15:52:51;2.87;;;1.43;;
7076;SDS011;3579;48.956;9.154;2023-01-10T15:55:33;4.80;;;1.13;;
7076;SDS011;3579;48.956;9.154;2023-01-10T15:58:26;2.33;;;1.40;;
7076;SDS011;3579;48.956;9.154;2023-01-10T16:01:00;4.03;;;1.40;;
7076;SDS011;3579;48.956;9.154;2023-01-10T16:06:00;1.70;;;1.07;;
7076;SDS011;3579;48.956;9.154;2023-01-10T16:08:32;2.30;;;1.17;;
7076;SDS011;3579;48.956;9.154;2023-01-10T16:11:02;2.67;;;1.20;;
7076;SDS011;3579;48.956;9.154;2023-01-10T16:13:31;3.57;;;1.20;;
7076;SDS011;3579;48.956;9.154;2023-01-10T16:15:59;1.87;;;1.30;;
7076;SDS011;3579;48.956;9.154;2023-01-10T16:18:29;1.80;;;1.20;;
7076;SDS011;3579;48.956;9.154;2023-01-10T16:20:56;1.03;;;0.93;;
7076;SDS011;3579;48.956;9.154;2023-01-10T16:23:33;1.30;;;1.10;;
7076;SDS011;3579;48.956;9.154;2023-01-10T16:26:00;4.20;;;1.27;;
7076;SDS011;3579;48.956;9.154;2023-01-10T16:28:29;1.30;;;0.90;;
7076;SDS011;3579;48.956;9.154;2023-01-10T16:31:04;2.07;;;1.20;;
7076;SDS011;3579;48.956;9.154;2023-01-10T16:33:30;1.63;;;1.30;;
7076;SDS011;3579;48.956;9.154;2023-01-10T16:35:58;3.73;;;1.20;;
7076;SDS011;3579;48.956;9.154;2023-01-10T16:38:25;2.33;;;1.10;;
7076;SDS011;3579;48.956;9.154;2023-01-10T16:40:57;3.50;;;1.37;;
7076;SDS011;3579;48.956;9.154;2023-01-10T16:43:50;2.00;;;1.10;;
7076;SDS011;3579;48.956;9.154;2023-01-10T16:46:16;1.93;;;1.10;;
7076;SDS011;3579;48.956;9.154;2023-01-10T16:48:42;2.13;;;1.20;;
7076;SDS011;3579;48.956;9.154;2023-01-10T16:53:54;2.37;;;1.40;;
7076;SDS011;3579;48.956;9.154;2023-01-10T16:56:21;1.47;;;1.10;;
7076;SDS011;3579;48.956;9.154;2023-01-10T16:58:52;1.97;;;1.10;;
7076;SDS011;3579;48.956;9.154;2023-01-10T17:01:34;1.80;;;1.10;;
7076;SDS011;3579;48.956;9.154;2023-01-10T17:04:13;2.03;;;1.00;;
7076;SDS011;3579;48.956;9.154;2023-01-10T17:06:44;1.77;;;1.10;;
7076;SDS011;3579;48.956;9.154;2023-01-10T17:09:13;2.17;;;1.10;;
7076;SDS011;3579;48.956;9.154;2023-01-10T17:12:04;1.27;;;1.00;;
7076;SDS011;3579;48.956;9.154;2023-01-10T17:14:36;2.50;;;1.30;;
7076;SDS011;3579;48.956;9.154;2023-01-10T17:17:03;1.13;;;1.03;;
7076;SDS011;3579;48.956;9.154;2023-01-10T17:19:30;1.23;;;0.97;;
7076;SDS011;3579;48.956;9.154;2023-01-10T17:21:56;1.87;;;1.00;;
7076;SDS011;3579;48.956;9.154;2023-01-10T17:24:22;1.30;;;1.00;;
7076;SDS011;3579;48.956;9.154;2023-01-10T17:26:48;1.20;;;1.00;;
7076;SDS011;3579;48.956;9.154;2023-01-10T17:29:14;2.10;;;1.10;;
7076;SDS011;3579;48.956;9.154;2023-01-10T17:31:40;1.40;;;1.03;;
7076;SDS011;3579;48.956;9.154;2023-01-10T17:34:06;1.67;;;1.00;;
7076;SDS011;3579;48.956;9.154;2023-01-10T17:36:32;2.13;;;1.27;;
7076;SDS011;3579;48.956;9.154;2023-01-10T17:39:03;2.00;;;1.10;;
7076;SDS011;3579;48.956;9.154;2023-01-10T17:41:30;1.80;;;1.20;;